Time;durP1;ratioP1;P1;durP2;ratioP2;P2;SDS_P1;SDS_P2;PMS_P1;PMS_P2;Temp;Humidity;BMP_temperature;BMP_pressure;BME280_temperature;BME280_humidity;BME280_pressure;Samples;Min_cycle;Max_cycle;Signal;HPM_P1;HPM_P2
2021/03/29 00:00:12;;;;;;;10.88;2.53;;;10.30;99.20;;;;;;5051349;28;20139;-63
2021/03/29 00:02:38;;;;;;;11.27;2.95;;;10.30;99.30;;;;;;5052399;28;20029;-63
2021/03/29 00:05:05;;;;;;;7.28;2.47;;;10.30;99.30;;;;;;5050770;28;20044;-63
2021/03/29 00:07:33;;;;;;;7.78;2.50;;;10.20;99.70;;;;;;5051034;28;20029;-63
2021/03/29 00:10:06;;;;;;;11.60;2.78;;;10.20;99.90;;;;;;5050997;28;20044;-64
2021/03/29 00:12:37;;;;;;;6.80;2.08;;;10.10;99.90;;;;;;5050927;28;20029;-63
2021/03/29 00:15:07;;;;;;;7.95;2.78;;;10.00;99.90;;;;;;5052379;28;20029;-64
2021/03/29 00:17:34;;;;;;;9.73;2.40;;;10.00;99.90;;;;;;5052201;28;20021;-63
2021/03/29 00:20:06;;;;;;;6.70;2.33;;;10.00;99.90;;;;;;5052266;28;20047;-63
2021/03/29 00:22:32;;;;;;;4.88;2.15;;;9.90;99.90;;;;;;5051069;28;20033;-63
2021/03/29 00:24:58;;;;;;;7.65;2.33;;;9.90;99.90;;;;;;5051034;28;20040;-63
2021/03/29 00:27:23;;;;;;;9.50;2.92;;;9.90;99.90;;;;;;5050999;28;20414;-63
2021/03/29 00:29:49;;;;;;;9.30;2.15;;;9.90;99.90;;;;;;5051100;28;20050;-63
2021/03/29 00:32:16;;;;;;;6.47;2.60;;;9.90;99.90;;;;;;5053716;28;20075;-63
2021/03/29 00:34:42;;;;;;;9.07;2.47;;;9.80;99.90;;;;;;5038465;28;20513;-63
2021/03/29 00:37:08;;;;;;;10.32;2.85;;;9.80;99.90;;;;;;5056308;28;20472;-63
2021/03/29 00:39:36;;;;;;;9.77;3.10;;;9.80;99.90;;;;;;5054720;28;20083;-63
2021/03/29 00:42:04;;;;;;;8.57;2.92;;;9.80;99.90;;;;;;5055176;28;20127;-63
2021/03/29 00:44:32;;;;;;;7.72;2.92;;;9.80;99.90;;;;;;5055644;28;20074;-63
2021/03/29 00:46:58;;;;;;;11.63;2.67;;;9.70;99.90;;;;;;5056335;28;20025;-63
2021/03/29 00:49:25;;;;;;;10.80;2.40;;;9.70;99.90;;;;;;5055554;28;20684;-63
2021/03/29 00:51:51;;;;;;;8.82;2.45;;;9.70;99.90;;;;;;5054822;28;20036;-63
2021/03/29 00:54:17;;;;;;;6.57;2.42;;;9.70;99.90;;;;;;5054493;28;20478;-63
2021/03/29 00:56:44;;;;;;;5.90;2.42;;;9.60;99.90;;;;;;5054746;28;20033;-63
2021/03/29 00:59:11;;;;;;;7.20;2.50;;;9.70;99.90;;;;;;5054703;28;20033;-63
2021/03/29 01:01:47;;;;;;;11.00;2.50;;;9.70;99.90;;;;;;5055289;28;20487;-62
2021/03/29 01:04:15;;;;;;;8.23;2.70;;;9.70;99.90;;;;;;5055362;28;20059;-63
2021/03/29 01:06:44;;;;;;;7.85;2.45;;;9.70;99.90;;;;;;5054386;28;20040;-63
2021/03/29 01:09:24;;;;;;;6.65;2.35;;;9.70;99.90;;;;;;5054433;28;20036;-64
2021/03/29 01:12:06;;;;;;;6.68;2.22;;;9.60;99.90;;;;;;5054292;28;20037;-63
2021/03/29 01:14:39;;;;;;;9.18;2.35;;;9.60;99.90;;;;;;5054353;28;20040;-63
2021/03/29 01:17:25;;;;;;;9.20;2.40;;;9.50;99.90;;;;;;5055596;28;20129;-64
2021/03/29 01:20:03;;;;;;;10.20;2.60;;;9.40;99.90;;;;;;5054489;28;20121;-64
2021/03/29 01:22:41;;;;;;;8.23;2.80;;;9.40;99.90;;;;;;5055072;28;20029;-63
2021/03/29 01:25:35;;;;;;;5.03;2.50;;;9.30;99.90;;;;;;5053927;28;20520;-63
2021/03/29 01:28:07;;;;;;;16.65;2.83;;;9.30;99.90;;;;;;5055155;28;20033;-62
2021/03/29 01:30:36;;;;;;;7.57;2.25;;;9.30;99.90;;;;;;5053734;28;20563;-63
2021/03/29 01:33:04;;;;;;;9.15;3.22;;;9.20;99.90;;;;;;5055251;28;20041;-63
2021/03/29 01:35:37;;;;;;;9.93;2.40;;;9.20;99.90;;;;;;5054943;28;20064;-63
2021/03/29 01:38:05;;;;;;;7.05;2.33;;;9.20;99.90;;;;;;5053783;28;20087;-63
2021/03/29 01:40:35;;;;;;;7.10;2.45;;;9.10;99.90;;;;;;5055101;28;20031;-63
2021/03/29 01:43:02;;;;;;;7.70;2.50;;;9.10;99.90;;;;;;5054103;28;20037;-62
2021/03/29 01:45:28;;;;;;;6.43;2.78;;;9.00;99.90;;;;;;5053547;28;20291;-64
2021/03/29 01:47:54;;;;;;;8.85;3.03;;;9.00;99.90;;;;;;5054760;28;20048;-63
2021/03/29 01:50:30;;;;;;;12.07;3.45;;;9.00;99.90;;;;;;5054898;28;20459;-63
2021/03/29 01:52:57;;;;;;;12.73;5.35;;;9.00;99.90;;;;;;5055005;28;20457;-63
2021/03/29 01:55:26;;;;;;;9.05;3.38;;;8.90;99.90;;;;;;5053588;28;20063;-63
2021/03/29 01:57:53;;;;;;;12.55;3.20;;;9.00;99.90;;;;;;5053644;28;20436;-63
2021/03/29 02:00:32;;;;;;;6.30;2.47;;;8.90;99.90;;;;;;5053555;28;20028;-63
2021/03/29 02:03:00;;;;;;;9.77;3.08;;;8.90;99.90;;;;;;5054474;28;20068;-63
2021/03/29 02:05:28;;;;;;;6.00;2.25;;;8.90;99.90;;;;;;5054175;28;20059;-63
2021/03/29 02:07:54;;;;;;;10.95;2.80;;;8.90;99.90;;;;;;5054680;28;20025;-63
2021/03/29 02:10:25;;;;;;;6.28;2.15;;;8.90;99.90;;;;;;5054451;28;20044;-63
2021/03/29 02:12:52;;;;;;;7.93;2.70;;;8.80;99.90;;;;;;5053369;28;20378;-63
2021/03/29 02:15:26;;;;;;;4.68;2.38;;;8.70;99.90;;;;;;5053313;28;20078;-63
2021/03/29 02:17:57;;;;;;;12.50;2.50;;;8.70;99.90;;;;;;5054449;28;20087;-63
2021/03/29 02:20:25;;;;;;;;;;;8.70;99.90;;;;;;5054463;28;20312;-63
2021/03/29 02:22:53;;;;;;;6.30;2.17;;;8.70;99.90;;;;;;5054285;28;19958;-63
2021/03/29 02:25:24;;;;;;;9.30;2.60;;;8.70;99.90;;;;;;5053905;28;20044;-63
2021/03/29 02:27:51;;;;;;;12.00;2.85;;;8.70;99.90;;;;;;5053157;28;20032;-63
2021/03/29 02:30:26;;;;;;;10.75;3.13;;;8.70;99.90;;;;;;5053057;28;20048;-63
2021/03/29 02:32:53;;;;;;;8.68;2.50;;;8.70;99.90;;;;;;5054204;28;20029;-63
2021/03/29 02:35:23;;;;;;;9.80;2.85;;;8.70;99.90;;;;;;5052716;28;20025;-63
2021/03/29 02:37:55;;;;;;;7.28;2.60;;;8.60;99.90;;;;;;5053726;28;20506;-63
2021/03/29 02:40:23;;;;;;;12.18;3.17;;;8.60;99.90;;;;;;5054066;28;20033;-63
2021/03/29 02:42:52;;;;;;;7.40;2.85;;;8.60;99.90;;;;;;5053786;28;20090;-63
2021/03/29 02:45:19;;;;;;;5.35;2.40;;;8.60;99.90;;;;;;5053826;28;20033;-63
2021/03/29 02:47:47;;;;;;;8.65;2.40;;;8.50;99.90;;;;;;5053701;28;20033;-63
2021/03/29 02:50:25;;;;;;;14.40;2.30;;;8.50;99.90;;;;;;5052633;28;20041;-63
2021/03/29 02:53:01;;;;;;;8.85;2.10;;;8.50;99.90;;;;;;5053526;28;20041;-62
2021/03/29 02:55:31;;;;;;;9.70;2.38;;;8.50;99.90;;;;;;5051972;28;20033;-62
2021/03/29 02:58:00;;;;;;;7.13;2.63;;;8.40;99.90;;;;;;5053591;28;20477;-63
2021/03/29 03:00:26;;;;;;;9.98;2.53;;;8.50;99.90;;;;;;5053609;28;20591;-62
2021/03/29 03:02:57;;;;;;;10.60;2.88;;;8.40;99.90;;;;;;5053703;28;20029;-63
2021/03/29 03:05:27;;;;;;;10.55;2.13;;;8.50;99.90;;;;;;5053198;28;20053;-62
2021/03/29 03:07:54;;;;;;;7.40;2.25;;;8.40;99.90;;;;;;5052388;28;20080;-63
2021/03/29 03:10:21;;;;;;;8.68;2.65;;;8.40;99.90;;;;;;5051979;28;20505;-63
2021/03/29 03:12:49;;;;;;;9.82;2.70;;;8.40;99.90;;;;;;5052104;28;20354;-63
2021/03/29 03:15:24;;;;;;;11.75;2.80;;;8.30;99.90;;;;;;5053451;28;20033;-62
2021/03/29 03:17:52;;;;;;;5.70;2.25;;;8.30;99.90;;;;;;5053250;28;20166;-62
2021/03/29 03:20:19;;;;;;;12.20;3.17;;;8.30;99.90;;;;;;5052909;28;20508;-62
2021/03/29 03:22:59;;;;;;;10.30;2.92;;;8.30;99.90;;;;;;5052810;28;20086;-62
2021/03/29 03:25:35;;;;;;;8.68;2.70;;;8.30;99.90;;;;;;5053288;28;20478;-62
2021/03/29 03:28:06;;;;;;;7.95;2.65;;;8.20;99.90;;;;;;5052906;28;20482;-63
2021/03/29 03:30:35;;;;;;;9.05;2.65;;;8.20;99.90;;;;;;5051629;28;20131;-62
2021/03/29 03:33:05;;;;;;;10.48;3.30;;;8.10;99.90;;;;;;5053071;28;20033;-63
2021/03/29 03:35:33;;;;;;;8.20;2.42;;;8.10;99.90;;;;;;5052990;28;20033;-63
2021/03/29 03:38:10;;;;;;;10.50;2.40;;;8.10;99.90;;;;;;5052711;28;20029;-63
2021/03/29 03:40:39;;;;;;;9.35;2.75;;;8.10;99.90;;;;;;5052536;28;20604;-63
2021/03/29 03:43:07;;;;;;;5.20;2.30;;;8.10;99.90;;;;;;5052825;28;20045;-63
2021/03/29 03:45:57;;;;;;;8.75;2.25;;;8.00;99.90;;;;;;5051574;28;20029;-63
2021/03/29 03:48:24;;;;;;;8.15;2.97;;;8.10;99.90;;;;;;5046787;28;20048;-63
2021/03/29 03:50:51;;;;;;;7.47;2.78;;;8.00;99.90;;;;;;5034861;28;20041;-63
2021/03/29 03:53:20;;;;;;;8.07;2.63;;;8.00;99.90;;;;;;5061562;28;20075;-63
2021/03/29 03:55:53;;;;;;;7.38;2.40;;;8.00;99.90;;;;;;5071183;28;20119;-63
2021/03/29 03:58:19;;;;;;;9.63;2.78;;;7.90;99.90;;;;;;5071650;28;20024;-64
2021/03/29 04:00:46;;;;;;;8.75;2.90;;;7.90;99.90;;;;;;5072183;28;20035;-65
2021/03/29 04:03:12;;;;;;;11.13;3.00;;;7.80;99.90;;;;;;5075024;28;20115;-66
2021/03/29 04:05:38;;;;;;;6.78;2.95;;;7.80;99.90;;;;;;5062280;28;20512;-66
2021/03/29 04:08:05;;;;;;;9.85;2.92;;;7.80;99.90;;;;;;5064464;28;20389;-66
2021/03/29 04:10:49;;;;;;;5.93;2.65;;;7.80;99.90;;;;;;5050334;28;20489;-67
2021/03/29 04:13:31;;;;;;;11.02;3.60;;;7.90;99.90;;;;;;5057427;28;20037;-67
2021/03/29 04:16:04;;;;;;;8.15;2.65;;;7.90;99.90;;;;;;5058396;28;20090;-65
2021/03/29 04:18:30;;;;;;;9.93;3.08;;;7.90;99.90;;;;;;5052237;28;20115;-63
2021/03/29 04:20:57;;;;;;;6.05;2.42;;;8.00;99.90;;;;;;5051893;28;20040;-66
2021/03/29 04:23:25;;;;;;;6.75;2.60;;;7.90;99.90;;;;;;5058032;28;20028;-65
2021/03/29 04:25:52;;;;;;;7.65;2.63;;;7.90;99.90;;;;;;5092443;28;20487;-66
2021/03/29 04:28:19;;;;;;;8.60;2.38;;;8.00;99.90;;;;;;5091283;28;20024;-66
2021/03/29 04:30:45;;;;;;;6.82;2.53;;;8.00;99.90;;;;;;5090581;28;20039;-66
2021/03/29 04:33:11;;;;;;;8.00;3.42;;;8.00;99.90;;;;;;5090900;28;20056;-66
2021/03/29 04:35:37;;;;;;;7.88;2.85;;;7.90;99.90;;;;;;5091008;28;20028;-65
2021/03/29 04:38:03;;;;;;;6.82;2.65;;;7.90;99.90;;;;;;5091294;28;20465;-66
2021/03/29 04:40:30;;;;;;;8.43;2.60;;;7.90;99.90;;;;;;5061722;28;20528;-65
2021/03/29 04:42:56;;;;;;;9.43;2.67;;;7.90;99.90;;;;;;5052049;28;20064;-66
2021/03/29 04:45:24;;;;;;;12.73;2.78;;;7.90;99.90;;;;;;5070428;28;20039;-65
2021/03/29 04:47:50;;;;;;;7.32;2.58;;;7.90;99.90;;;;;;5071894;28;20021;-66
2021/03/29 04:50:19;;;;;;;8.13;2.70;;;7.90;99.90;;;;;;5071809;28;20032;-64
2021/03/29 04:52:45;;;;;;;9.50;3.33;;;7.90;99.90;;;;;;5071911;28;20032;-65
2021/03/29 04:55:16;;;;;;;9.85;2.78;;;7.80;99.90;;;;;;5070940;28;20041;-65
2021/03/29 04:57:42;;;;;;;7.30;2.07;;;7.90;99.90;;;;;;5060858;28;20037;-65
2021/03/29 05:00:10;;;;;;;7.50;2.85;;;7.90;99.90;;;;;;5051966;28;20492;-64
2021/03/29 05:02:36;;;;;;;6.95;2.03;;;7.90;99.90;;;;;;5051721;28;20044;-65
2021/03/29 05:05:02;;;;;;;7.03;2.60;;;7.90;99.90;;;;;;5051316;28;20052;-65
2021/03/29 05:07:28;;;;;;;6.82;2.60;;;7.90;99.90;;;;;;5051621;28;20112;-65
2021/03/29 05:09:54;;;;;;;8.32;3.60;;;7.80;99.90;;;;;;5051546;28;20578;-65
2021/03/29 05:12:22;;;;;;;9.73;2.58;;;7.80;99.90;;;;;;5050285;28;20497;-65
2021/03/29 05:14:49;;;;;;;5.35;2.53;;;7.70;99.90;;;;;;5069700;28;20075;-65
2021/03/29 05:17:16;;;;;;;8.45;2.70;;;7.70;99.90;;;;;;5071240;28;20025;-65
2021/03/29 05:19:42;;;;;;;6.20;2.17;;;7.80;99.90;;;;;;5074918;28;20032;-65
2021/03/29 05:22:08;;;;;;;7.55;2.70;;;7.80;99.90;;;;;;5074125;28;20499;-66
2021/03/29 05:24:36;;;;;;;8.27;2.95;;;7.70;99.90;;;;;;5088504;28;20118;-66
2021/03/29 05:27:05;;;;;;;10.75;2.90;;;7.70;99.90;;;;;;5095599;28;20028;-67
2021/03/29 05:29:52;;;;;;;11.90;2.65;;;7.70;99.90;;;;;;5095150;28;20031;-66
2021/03/29 05:32:25;;;;;;;6.93;3.25;;;7.70;99.90;;;;;;5094809;28;20489;-66
2021/03/29 05:34:57;;;;;;;9.82;2.63;;;7.70;99.90;;;;;;5094907;28;20034;-66
2021/03/29 05:37:24;;;;;;;11.05;2.83;;;7.60;99.90;;;;;;5095427;28;20380;-66
2021/03/29 05:39:57;;;;;;;9.82;2.80;;;7.60;99.90;;;;;;5095109;28;20028;-66
2021/03/29 05:42:27;;;;;;;9.15;2.90;;;7.60;99.90;;;;;;5077094;28;20035;-66
2021/03/29 05:45:02;;;;;;;9.00;2.78;;;7.70;99.90;;;;;;5094866;28;20058;-66
2021/03/29 05:47:29;;;;;;;5.03;2.53;;;7.70;99.90;;;;;;5094012;28;20559;-66
2021/03/29 05:49:59;;;;;;;8.07;2.60;;;7.70;99.90;;;;;;5094838;28;20035;-67
2021/03/29 05:52:26;;;;;;;8.95;2.70;;;7.70;99.90;;;;;;5095086;28;20414;-66
2021/03/29 05:54:54;;;;;;;10.73;2.83;;;7.80;99.90;;;;;;5078701;28;20504;-66
2021/03/29 05:57:20;;;;;;;10.07;2.95;;;7.80;99.90;;;;;;5074811;28;20037;-66
2021/03/29 05:59:46;;;;;;;10.52;3.17;;;7.70;99.90;;;;;;5076572;28;20097;-66
2021/03/29 06:02:32;;;;;;;9.48;2.75;;;7.70;99.90;;;;;;5074423;28;20040;-62
2021/03/29 06:04:59;;;;;;;11.63;3.70;;;7.60;99.90;;;;;;5073777;28;20052;-65
2021/03/29 06:07:28;;;;;;;11.13;3.25;;;7.70;99.90;;;;;;5072999;28;20036;-66
2021/03/29 06:10:07;;;;;;;6.57;3.10;;;7.70;99.90;;;;;;5073057;28;20036;-66
2021/03/29 06:12:50;;;;;;;10.98;3.40;;;7.70;99.90;;;;;;5072983;28;20074;-66
2021/03/29 06:15:16;;;;;;;8.65;3.55;;;7.70;99.90;;;;;;5045460;28;20041;-65
2021/03/29 06:17:42;;;;;;;6.20;2.83;;;7.70;99.90;;;;;;5065034;28;20035;-66
2021/03/29 06:20:09;;;;;;;10.50;3.05;;;7.80;99.90;;;;;;5074235;28;20028;-66
2021/03/29 06:22:38;;;;;;;7.80;2.90;;;7.80;99.90;;;;;;5074133;28;20107;-67
2021/03/29 06:25:15;;;;;;;9.15;3.38;;;7.80;99.90;;;;;;5107171;28;20515;-68
2021/03/29 06:27:48;;;;;;;9.90;3.15;;;7.80;99.90;;;;;;5092968;28;20103;-68
2021/03/29 06:30:39;;;;;;;7.65;2.90;;;7.90;99.90;;;;;;5093365;28;20551;-68
2021/03/29 06:33:12;;;;;;;10.75;2.80;;;8.00;99.90;;;;;;5092775;28;20059;-68
2021/03/29 06:35:52;;;;;;;13.50;3.88;;;8.00;99.90;;;;;;5094209;28;20109;-68
2021/03/29 06:38:24;;;;;;;18.77;3.20;;;8.00;99.90;;;;;;5094212;28;20029;-68
2021/03/29 06:40:56;;;;;;;12.75;4.22;;;8.00;99.90;;;;;;5093860;28;20023;-69
2021/03/29 06:43:36;;;;;;;8.35;3.60;;;8.00;99.90;;;;;;5094002;28;20032;-70
2021/03/29 06:46:23;;;;;;;11.48;3.30;;;8.00;99.90;;;;;;5093921;28;20106;-68
2021/03/29 06:48:50;;;;;;;7.28;2.95;;;8.00;99.90;;;;;;5093801;28;20028;-66
2021/03/29 06:51:21;;;;;;;8.43;3.33;;;8.10;99.90;;;;;;5093613;28;20050;-65
2021/03/29 06:54:04;;;;;;;9.98;3.28;;;8.10;99.90;;;;;;5086663;28;20035;-66
2021/03/29 06:56:42;;;;;;;9.90;3.38;;;8.00;99.90;;;;;;5068274;28;20103;-64
2021/03/29 06:59:25;;;;;;;6.80;3.10;;;8.10;99.90;;;;;;5081712;28;20117;-64
2021/03/29 07:01:54;;;;;;;8.00;3.28;;;8.20;99.90;;;;;;5072076;28;20040;-64
2021/03/29 07:04:25;;;;;;;7.07;2.92;;;8.30;99.90;;;;;;5072846;28;20048;-64
2021/03/29 07:06:53;;;;;;;7.78;3.35;;;8.40;99.90;;;;;;5073012;28;20033;-64
2021/03/29 07:09:20;;;;;;;12.07;3.95;;;8.60;99.90;;;;;;5071712;28;20033;-64
2021/03/29 07:11:47;;;;;;;8.65;3.22;;;8.80;99.90;;;;;;5072564;28;20117;-64
2021/03/29 07:14:19;;;;;;;10.60;3.08;;;8.90;99.90;;;;;;5072991;28;20032;-64
2021/03/29 07:16:46;;;;;;;6.32;3.10;;;9.00;99.90;;;;;;5061496;28;20025;-65
2021/03/29 07:19:12;;;;;;;9.40;3.55;;;9.20;99.90;;;;;;5073243;28;20029;-64
2021/03/29 07:21:39;;;;;;;8.95;2.97;;;9.30;99.90;;;;;;5072851;28;20024;-63
2021/03/29 07:24:12;;;;;;;12.38;3.28;;;9.40;99.90;;;;;;5072550;28;20044;-64
2021/03/29 07:26:46;;;;;;;10.68;3.13;;;9.50;99.90;;;;;;5071794;28;20117;-64
2021/03/29 07:29:26;;;;;;;10.90;3.80;;;9.60;99.90;;;;;;5064377;28;20060;-64
2021/03/29 07:31:55;;;;;;;7.60;3.30;;;9.60;99.90;;;;;;5052798;28;20037;-64
2021/03/29 07:35:01;;;;;;;8.63;3.35;;;9.60;99.90;;;;;;5051616;28;20036;-64
2021/03/29 07:37:44;;;;;;;16.02;4.10;;;9.80;99.90;;;;;;5050135;28;20119;-64
2021/03/29 07:40:18;;;;;;;7.88;3.40;;;9.90;99.90;;;;;;5049220;28;20037;-63
2021/03/29 07:42:52;;;;;;;6.75;3.30;;;10.10;99.90;;;;;;5049467;28;20037;-63
2021/03/29 07:45:24;;;;;;;10.75;3.25;;;10.20;99.90;;;;;;5050045;28;20448;-64
2021/03/29 07:47:56;;;;;;;11.52;3.70;;;10.30;99.90;;;;;;5047089;28;20630;-64
2021/03/29 07:50:25;;;;;;;7.47;3.38;;;10.30;99.90;;;;;;5039557;28;20073;-65
2021/03/29 07:52:58;;;;;;;10.57;3.00;;;10.40;99.90;;;;;;5038302;28;20033;-64
2021/03/29 07:55:25;;;;;;;6.70;3.20;;;10.60;99.90;;;;;;5043395;28;20098;-64
2021/03/29 07:57:51;;;;;;;11.00;3.42;;;10.70;99.90;;;;;;5041743;28;20048;-65
2021/03/29 08:00:23;;;;;;;7.22;2.75;;;10.80;99.90;;;;;;5046530;28;20397;-64
2021/03/29 08:03:14;;;;;;;9.90;3.15;;;10.80;99.90;;;;;;5037485;28;20132;-64
2021/03/29 08:05:47;;;;;;;9.65;3.03;;;10.90;99.90;;;;;;5014285;28;20510;-64
2021/03/29 08:08:27;;;;;;;9.80;2.90;;;11.00;99.90;;;;;;5040545;28;20041;-64
2021/03/29 08:11:02;;;;;;;9.48;3.13;;;11.10;99.90;;;;;;5059830;28;20075;-64
2021/03/29 08:13:55;;;;;;;7.75;3.30;;;11.20;99.90;;;;;;5052361;28;20048;-64
2021/03/29 08:16:20;;;;;;;8.77;3.03;;;11.30;99.90;;;;;;5071953;28;20033;-64
2021/03/29 08:19:05;;;;;;;12.35;3.10;;;11.50;99.90;;;;;;5070053;28;20032;-64
2021/03/29 08:21:51;;;;;;;9.15;3.05;;;11.70;99.50;;;;;;5071700;28;20086;-65
2021/03/29 08:24:34;;;;;;;10.80;2.80;;;11.70;99.40;;;;;;5068473;28;20036;-64
2021/03/29 08:27:04;;;;;;;7.97;2.85;;;11.70;99.30;;;;;;5071728;28;20504;-64
2021/03/29 08:29:42;;;;;;;10.07;2.63;;;11.80;99.60;;;;;;5066607;28;20086;-64
2021/03/29 08:32:24;;;;;;;9.52;2.70;;;11.90;98.80;;;;;;5058862;28;20037;-65
2021/03/29 08:35:00;;;;;;;7.63;2.40;;;12.10;98.60;;;;;;5071014;28;20064;-64
2021/03/29 08:37:29;;;;;;;13.75;2.63;;;12.30;98.30;;;;;;5072220;28;20037;-63
2021/03/29 08:39:58;;;;;;;9.32;3.40;;;12.30;99.20;;;;;;5068455;28;20552;-65
2021/03/29 08:42:30;;;;;;;13.25;3.53;;;12.30;99.20;;;;;;5060631;28;20075;-64
2021/03/29 08:44:56;;;;;;;;;;;12.30;98.70;;;;;;5061093;28;20033;-65
2021/03/29 08:47:24;;;;;;;7.80;3.00;;;12.40;98.70;;;;;;5064266;28;19958;-65
2021/03/29 08:50:00;;;;;;;10.77;3.08;;;12.60;99.30;;;;;;5067511;28;20489;-65
2021/03/29 08:52:52;;;;;;;6.15;2.65;;;12.70;98.00;;;;;;5072430;28;20032;-64
2021/03/29 08:55:25;;;;;;;8.75;2.78;;;12.90;97.50;;;;;;5093454;28;20036;-65
2021/03/29 08:57:56;;;;;;;7.38;3.30;;;13.00;97.80;;;;;;5055678;28;20029;-64
2021/03/29 09:00:33;;;;;;;10.48;2.42;;;13.10;97.00;;;;;;5065471;28;20032;-65
2021/03/29 09:02:59;;;;;;;8.00;2.40;;;13.20;96.30;;;;;;5065841;28;20033;-65
2021/03/29 09:05:26;;;;;;;9.15;2.70;;;13.30;96.40;;;;;;5073300;28;20040;-64
2021/03/29 09:07:53;;;;;;;7.18;2.70;;;13.40;95.60;;;;;;5067712;28;20039;-64
2021/03/29 09:10:36;;;;;;;10.00;2.92;;;13.60;94.10;;;;;;5075262;28;20024;-65
2021/03/29 09:13:14;;;;;;;10.50;2.58;;;13.60;94.50;;;;;;5062530;28;20107;-64
2021/03/29 09:15:45;;;;;;;9.40;2.47;;;13.80;93.70;;;;;;5072289;28;20108;-65
2021/03/29 09:18:14;;;;;;;6.20;2.20;;;14.00;95.30;;;;;;5071993;28;20389;-65
2021/03/29 09:20:49;;;;;;;5.72;2.50;;;14.10;94.90;;;;;;5069303;28;20547;-65
2021/03/29 09:23:19;;;;;;;6.10;2.22;;;14.00;93.40;;;;;;5058308;28;20040;-66
2021/03/29 09:25:49;;;;;;;8.95;2.75;;;14.30;93.10;;;;;;5069677;28;20108;-65
2021/03/29 09:31:14;;;;;;;13.77;2.97;;;14.40;93.50;;;;;;5073608;28;20033;-65
2021/03/29 09:33:44;;;;;;;9.52;2.60;;;14.60;92.50;;;;;;5074049;28;20032;-65
2021/03/29 09:36:14;;;;;;;6.70;2.25;;;14.80;90.90;;;;;;5073735;28;20085;-64
2021/03/29 09:38:46;;;;;;;7.22;3.55;;;14.80;91.60;;;;;;5075319;28;20028;-64
2021/03/29 09:41:33;;;;;;;8.80;2.38;;;15.00;90.30;;;;;;5074837;28;20039;-65
2021/03/29 09:44:09;;;;;;;6.53;2.95;;;15.10;88.00;;;;;;5060941;28;20052;-65
2021/03/29 09:46:35;;;;;;;7.60;2.45;;;15.30;89.80;;;;;;5055489;28;20041;-65
2021/03/29 09:49:16;;;;;;;6.35;1.88;;;15.40;88.60;;;;;;5059546;28;20040;-65
2021/03/29 09:51:48;;;;;;;6.72;2.33;;;15.50;89.70;;;;;;5053260;28;20086;-65
2021/03/29 09:54:37;;;;;;;11.82;2.80;;;15.60;90.00;;;;;;5065252;28;20039;-65
2021/03/29 09:57:20;;;;;;;9.48;3.88;;;15.80;87.00;;;;;;5073204;28;20140;-66
2021/03/29 09:59:46;;;;;;;8.02;2.45;;;15.70;87.40;;;;;;5072321;28;20031;-65
2021/03/29 10:02:20;;;;;;;14.20;4.38;;;15.80;86.30;;;;;;5067621;28;20118;-64
2021/03/29 10:04:46;;;;;;;5.88;2.10;;;15.90;85.70;;;;;;5054353;28;20055;-64
2021/03/29 10:07:16;;;;;;;7.80;2.38;;;16.00;84.40;;;;;;5060282;28;20103;-64
2021/03/29 10:09:46;;;;;;;8.80;2.70;;;16.10;84.00;;;;;;5068367;28;20025;-64
2021/03/29 10:12:25;;;;;;;8.70;2.55;;;16.30;82.50;;;;;;5069694;28;20058;-65
2021/03/29 10:15:02;;;;;;;9.07;2.88;;;16.40;82.60;;;;;;5067951;28;20025;-65
2021/03/29 10:17:28;;;;;;;8.13;3.33;;;16.40;82.50;;;;;;5056322;28;20029;-64
2021/03/29 10:20:15;;;;;;;6.50;2.63;;;16.50;81.60;;;;;;5073987;28;20434;-64
2021/03/29 10:22:41;;;;;;;8.52;2.47;;;16.80;81.10;;;;;;5073885;28;20032;-63
2021/03/29 10:25:19;;;;;;;8.82;1.90;;;16.90;77.90;;;;;;5055760;28;20378;-64
2021/03/29 10:27:47;;;;;;;7.38;1.73;;;17.10;76.70;;;;;;5055201;28;20023;-63
2021/03/29 10:30:25;;;;;;;16.58;2.22;;;17.30;78.50;;;;;;5069479;28;20028;-63
2021/03/29 10:32:57;;;;;;;4.30;1.50;;;17.50;75.90;;;;;;5065731;28;20120;-64
2021/03/29 10:35:27;;;;;;;7.82;2.22;;;17.70;74.50;;;;;;5055922;28;20040;-65
2021/03/29 10:37:54;;;;;;;5.35;2.15;;;17.70;72.00;;;;;;5089223;28;20477;-76
2021/03/29 10:40:20;;;;;;;6.70;1.90;;;17.70;70.30;;;;;;5088860;28;20847;-73
2021/03/29 10:42:46;;;;;;;8.90;1.92;;;17.90;72.10;;;;;;5073473;28;20111;-73
2021/03/29 10:45:18;;;;;;;6.78;2.08;;;18.00;69.50;;;;;;5088758;28;20544;-70
2021/03/29 10:47:44;;;;;;;;;;;18.30;67.90;;;;;;5073858;28;20086;-68
2021/03/29 10:50:15;;;;;;;5.95;1.65;;;18.20;66.60;;;;;;5061059;28;20063;-69
2021/03/29 10:52:41;;;;;;;5.70;1.77;;;18.40;66.70;;;;;;5058053;28;20123;-69
2021/03/29 10:55:08;;;;;;;6.90;1.38;;;18.60;64.20;;;;;;5065605;28;20029;-65
2021/03/29 10:57:34;;;;;;;5.55;1.48;;;18.70;61.50;;;;;;5060050;28;20095;-64
2021/03/29 11:00:00;;;;;;;5.85;1.35;;;18.80;61.20;;;;;;5073151;28;20028;-64
2021/03/29 11:02:29;;;;;;;6.88;1.50;;;18.80;60.50;;;;;;5073249;28;20028;-64
2021/03/29 11:04:54;;;;;;;4.30;1.63;;;19.10;59.00;;;;;;5071283;28;20040;-64
2021/03/29 11:07:20;;;;;;;4.00;1.73;;;19.00;59.20;;;;;;5073101;28;20039;-64
2021/03/29 11:09:46;;;;;;;8.40;1.50;;;18.90;60.50;;;;;;5072424;28;20028;-64
2021/03/29 11:12:12;;;;;;;6.22;1.90;;;18.90;61.40;;;;;;5072949;28;20032;-65
2021/03/29 11:14:37;;;;;;;7.28;1.85;;;19.30;60.30;;;;;;5072823;28;20032;-64
2021/03/29 11:17:04;;;;;;;2.42;1.27;;;19.70;57.30;;;;;;5071477;28;20056;-64
2021/03/29 11:19:29;;;;;;;3.60;1.27;;;19.80;58.00;;;;;;5071601;28;20097;-65
2021/03/29 11:21:55;;;;;;;3.72;1.10;;;19.70;56.10;;;;;;5072762;28;20420;-65
2021/03/29 11:24:22;;;;;;;4.80;1.90;;;19.60;56.90;;;;;;5071284;28;20119;-65
2021/03/29 11:26:48;;;;;;;5.43;1.45;;;19.50;56.50;;;;;;5072679;28;20086;-65
2021/03/29 11:29:15;;;;;;;5.15;1.50;;;19.80;55.30;;;;;;5072301;28;20033;-64
2021/03/29 11:31:42;;;;;;;4.75;1.48;;;19.90;54.60;;;;;;5072558;28;20032;-65
2021/03/29 11:34:10;;;;;;;5.82;1.30;;;19.80;55.60;;;;;;5072626;28;20039;-65
2021/03/29 11:36:36;;;;;;;7.93;1.80;;;20.20;55.30;;;;;;5072708;28;20029;-64
2021/03/29 11:39:08;;;;;;;3.22;1.33;;;20.50;56.10;;;;;;5072506;28;20037;-65
2021/03/29 11:41:35;;;;;;;9.40;3.53;;;20.80;53.20;;;;;;5070911;28;20032;-66
2021/03/29 11:44:01;;;;;;;5.05;1.35;;;20.80;54.90;;;;;;5072016;28;20032;-65
2021/03/29 11:46:27;;;;;;;4.75;1.30;;;21.00;52.40;;;;;;5072275;28;20070;-65
2021/03/29 11:48:53;;;;;;;3.80;1.08;;;20.90;51.80;;;;;;5072085;28;20542;-65
2021/03/29 11:51:18;;;;;;;6.70;1.50;;;21.10;51.90;;;;;;5072159;28;20028;-65
2021/03/29 11:53:44;;;;;;;5.88;1.40;;;21.10;51.50;;;;;;5072152;28;20073;-65
2021/03/29 11:56:10;;;;;;;7.63;1.60;;;21.50;52.10;;;;;;5072160;28;20085;-63
2021/03/29 11:58:36;;;;;;;5.90;1.48;;;21.50;53.70;;;;;;5073483;28;20036;-63
2021/03/29 12:01:27;;;;;;;6.65;1.70;;;21.80;50.10;;;;;;5090218;28;20024;-65
2021/03/29 12:03:59;;;;;;;5.32;1.30;;;21.70;48.40;;;;;;5090751;28;20439;-65
2021/03/29 12:06:39;;;;;;;5.03;1.48;;;22.20;49.30;;;;;;5090884;28;20081;-65
2021/03/29 12:09:17;;;;;;;6.15;1.40;;;22.50;47.90;;;;;;5075495;28;20573;-64
2021/03/29 12:11:52;;;;;;;4.93;1.45;;;22.80;48.70;;;;;;5091192;28;20040;-64
2021/03/29 12:14:19;;;;;;;3.65;1.35;;;22.70;50.50;;;;;;5092256;28;20039;-65
2021/03/29 12:16:47;;;;;;;5.10;1.33;;;22.80;49.20;;;;;;5092412;28;20418;-65
2021/03/29 12:19:16;;;;;;;6.38;1.25;;;23.10;46.60;;;;;;5092269;28;20103;-65
2021/03/29 12:21:46;;;;;;;6.10;1.30;;;24.20;44.80;;;;;;5091136;28;20519;-64
2021/03/29 12:24:23;;;;;;;5.32;1.15;;;25.30;44.80;;;;;;5070947;28;20060;-64
2021/03/29 12:26:50;;;;;;;9.65;1.45;;;24.90;43.50;;;;;;5050341;28;20469;-64
2021/03/29 12:29:25;;;;;;;2.60;0.98;;;25.80;41.70;;;;;;5052028;28;20374;-64
2021/03/29 12:31:51;;;;;;;3.85;1.20;;;25.80;40.80;;;;;;5067277;28;20037;-65
2021/03/29 12:34:17;;;;;;;5.00;0.98;;;24.70;42.30;;;;;;5050653;28;20048;-64
2021/03/29 12:36:53;;;;;;;2.65;0.98;;;26.00;41.60;;;;;;5050636;28;20025;-64
2021/03/29 12:39:30;;;;;;;4.10;1.33;;;26.10;40.40;;;;;;5051828;28;20029;-64
2021/03/29 12:41:59;;;;;;;4.65;1.35;;;26.30;39.30;;;;;;5051893;28;20056;-64
2021/03/29 12:44:26;;;;;;;6.03;1.30;;;26.10;39.60;;;;;;5051780;28;20561;-64
2021/03/29 12:46:56;;;;;;;5.60;1.30;;;25.50;39.70;;;;;;5051435;28;20504;-64
2021/03/29 12:49:22;;;;;;;4.75;1.33;;;26.10;40.20;;;;;;5051745;28;20040;-65
2021/03/29 12:51:59;;;;;;;2.97;1.42;;;25.80;38.90;;;;;;5051688;28;20029;-64
2021/03/29 12:54:36;;;;;;;7.88;1.88;;;25.00;40.40;;;;;;5063854;28;20028;-65
2021/03/29 12:57:03;;;;;;;5.05;2.10;;;26.00;38.90;;;;;;5070372;28;20072;-65
2021/03/29 12:59:31;;;;;;;5.05;1.20;;;26.70;38.80;;;;;;5070342;28;20029;-64
2021/03/29 13:01:58;;;;;;;3.13;1.20;;;26.80;37.60;;;;;;5070429;28;20070;-64
2021/03/29 13:04:29;;;;;;;2.47;0.93;;;26.40;37.90;;;;;;5070442;28;20389;-65
2021/03/29 13:12:17;;;;;;;6.10;1.15;;;25.40;39.60;;;;;;5070139;28;20032;-65
2021/03/29 13:15:08;;;;;;;4.43;1.00;;;24.80;39.60;;;;;;5053990;28;20032;-65
2021/03/29 13:17:40;;;;;;;6.40;1.20;;;24.90;40.40;;;;;;5071635;28;20033;-66